< < Back
Terminal Aerodrome Forecast


Current Version              Previous Versions:   1  2  3  4  5  6  7  8  9  

Terminal Aerodrome Forecast

711
FTUS42 KMLB 302300 RRA
TAFDAB
TAF
KDAB 302354Z 3100/3124 VRB03KT P6SM FEW250
     FM311400 12004KT P6SM SCT025
     FM311800 11008KT P6SM SCT035=

Latest METAR

236
SAUS80 KWBC 311100 RRA
MTRDAB
METAR KDAB 311053Z 00000KT 7SM FEW040 SCT085 BKN150 24/22 A2997 RMK AO2
SLP149 T02390222


USA.gov is the U.S. government's official web portal to all federal, state and local government web resources and services.